Time;durP1;ratioP1;P1;durP2;ratioP2;P2;SDS_P1;SDS_P2;PMS_P1;PMS_P2;Temp;Humidity;BMP_temperature;BMP_pressure;BME280_temperature;BME280_humidity;BME280_pressure;Samples;Min_cycle;Max_cycle;Signal;HPM_P1;HPM_P2
2022/05/21 00:00:19;;;;;;;32.22;18.60;;;;;;;;;;10498672;28;20327;-69
2022/05/21 00:05:38;;;;;;;34.30;18.45;;;;;;;;;;10528163;28;20037;-68
2022/05/21 00:10:43;;;;;;;44.65;20.80;;;;;;;;;;10512524;28;20133;-68
2022/05/21 00:15:46;;;;;;;34.55;18.50;;;;;;;;;;10522800;28;20040;-69
2022/05/21 00:20:49;;;;;;;39.92;20.77;;;;;;;;;;10473563;28;20061;-68
2022/05/21 00:25:59;;;;;;;36.20;21.08;;;;;;;;;;10485373;28;20043;-68
2022/05/21 00:31:02;;;;;;;41.05;17.42;;;;;;;;;;10490444;28;20118;-69
2022/05/21 00:36:07;;;;;;;34.10;18.02;;;;;;;;;;10512136;28;20330;-69
2022/05/21 00:41:15;;;;;;;28.63;15.90;;;;;;;;;;10527405;28;20064;-68
2022/05/21 00:46:20;;;;;;;29.98;16.83;;;;;;;;;;10518630;28;20036;-68
2022/05/21 00:51:30;;;;;;;33.67;19.42;;;;;;;;;;10521872;28;20051;-68
2022/05/21 00:56:37;;;;;;;39.05;20.20;;;;;;;;;;10533526;28;20040;-68
2022/05/21 01:01:44;;;;;;;36.67;20.23;;;;;;;;;;10535323;28;20278;-67
2022/05/21 01:06:48;;;;;;;32.03;19.73;;;;;;;;;;10529049;28;20100;-66
2022/05/21 01:11:52;;;;;;;34.15;20.58;;;;;;;;;;10520482;28;20045;-67
2022/05/21 01:16:55;;;;;;;35.67;19.83;;;;;;;;;;10521414;28;20059;-67
2022/05/21 01:21:58;;;;;;;42.50;20.73;;;;;;;;;;10519050;28;20325;-67
2022/05/21 01:27:03;;;;;;;38.67;20.53;;;;;;;;;;10517663;28;20346;-67
2022/05/21 01:32:06;;;;;;;42.42;20.77;;;;;;;;;;10488063;28;20068;-67
2022/05/21 01:37:08;;;;;;;40.25;21.70;;;;;;;;;;10486283;28;20217;-67
2022/05/21 01:42:12;;;;;;;34.53;20.30;;;;;;;;;;10518087;28;20079;-67
2022/05/21 01:47:16;;;;;;;36.10;20.47;;;;;;;;;;10518809;28;20040;-67
2022/05/21 01:52:18;;;;;;;35.72;19.90;;;;;;;;;;10518851;28;20319;-67
2022/05/21 01:57:23;;;;;;;37.53;20.20;;;;;;;;;;10496928;28;20068;-68
2022/05/21 02:02:25;;;;;;;40.80;21.45;;;;;;;;;;10476956;28;20044;-68
2022/05/21 02:07:28;;;;;;;42.63;22.77;;;;;;;;;;10488162;28;20095;-68
2022/05/21 02:12:33;;;;;;;36.38;20.80;;;;;;;;;;10516757;28;20051;-68
2022/05/21 02:17:35;;;;;;;45.53;22.83;;;;;;;;;;10516785;28;20102;-68
2022/05/21 02:22:37;;;;;;;42.47;22.73;;;;;;;;;;10517104;28;20048;-68
2022/05/21 02:27:41;;;;;;;43.92;23.45;;;;;;;;;;10506090;28;20049;-68
2022/05/21 02:32:43;;;;;;;42.27;23.13;;;;;;;;;;10490106;28;20051;-67
2022/05/21 02:43:07;;;;;;;30.15;17.33;;;;;;;;;;10529353;28;20258;-69
2022/05/21 02:48:09;;;;;;;26.07;15.13;;;;;;;;;;10516416;28;20086;-68
2022/05/21 02:53:17;;;;;;;24.00;13.43;;;;;;;;;;10516379;28;20228;-68
2022/05/21 02:58:21;;;;;;;21.48;13.10;;;;;;;;;;10513666;28;20044;-68
2022/05/21 03:03:23;;;;;;;17.73;10.93;;;;;;;;;;10514874;28;20078;-68
2022/05/21 03:13:48;;;;;;;16.40;10.32;;;;;;;;;;10527424;28;20243;-68
2022/05/21 03:18:50;;;;;;;14.05;9.10;;;;;;;;;;10515240;28;20366;-68
2022/05/21 03:23:52;;;;;;;13.30;8.95;;;;;;;;;;10515163;28;20040;-68
2022/05/21 03:28:56;;;;;;;15.70;10.60;;;;;;;;;;10511991;28;20347;-68
2022/05/21 03:33:58;;;;;;;21.13;13.03;;;;;;;;;;10487798;28;20143;-68
2022/05/21 03:39:00;;;;;;;17.08;10.48;;;;;;;;;;10492273;28;20113;-68
2022/05/21 03:44:05;;;;;;;17.45;10.20;;;;;;;;;;10511145;28;20068;-68
2022/05/21 03:49:07;;;;;;;15.02;8.18;;;;;;;;;;10514883;28;20048;-68
2022/05/21 03:54:09;;;;;;;12.40;8.00;;;;;;;;;;10508923;28;20086;-67
2022/05/21 03:59:14;;;;;;;7.82;6.45;;;;;;;;;;10513432;28;20098;-68
2022/05/21 04:04:16;;;;;;;9.83;7.10;;;;;;;;;;10514825;28;20082;-67
2022/05/21 04:09:19;;;;;;;10.40;5.88;;;;;;;;;;10508206;28;20060;-68
2022/05/21 04:14:27;;;;;;;11.40;6.15;;;;;;;;;;10502385;28;20045;-68
2022/05/21 04:19:30;;;;;;;10.50;6.43;;;;;;;;;;10502666;28;20097;-68
2022/05/21 04:24:32;;;;;;;11.20;6.13;;;;;;;;;;10491261;28;20048;-67
2022/05/21 04:29:36;;;;;;;7.43;3.08;;;;;;;;;;10502099;28;20284;-66
2022/05/21 04:34:38;;;;;;;3.38;2.30;;;;;;;;;;10516305;28;20086;-69
2022/05/21 04:39:41;;;;;;;2.83;1.70;;;;;;;;;;10520986;28;20060;-68
2022/05/21 04:44:44;;;;;;;10.23;1.50;;;;;;;;;;10520475;28;20071;-68
2022/05/21 04:49:47;;;;;;;2.83;1.25;;;;;;;;;;10520814;28;20044;-68
2022/05/21 04:54:49;;;;;;;2.13;0.90;;;;;;;;;;10488417;28;20294;-68
2022/05/21 04:59:53;;;;;;;6.00;0.90;;;;;;;;;;10494176;28;20053;-68
2022/05/21 05:04:55;;;;;;;3.40;1.10;;;;;;;;;;10521493;28;20060;-68
2022/05/21 05:09:58;;;;;;;5.10;1.13;;;;;;;;;;10519760;28;20098;-69
2022/05/21 05:15:02;;;;;;;;;;;;;;;;;;10514742;28;20058;-69
2022/05/21 05:20:05;;;;;;;4.57;1.40;;;;;;;;;;10519921;28;20088;-70
2022/05/21 05:25:09;;;;;;;4.53;1.13;;;;;;;;;;10514390;28;20064;-71
2022/05/21 05:30:13;;;;;;;2.58;1.48;;;;;;;;;;10504999;28;20044;-70
2022/05/21 05:35:17;;;;;;;2.80;1.40;;;;;;;;;;10505240;28;20040;-70
2022/05/21 05:40:21;;;;;;;3.93;1.47;;;;;;;;;;10523014;28;20072;-71
2022/05/21 05:45:25;;;;;;;3.08;1.63;;;;;;;;;;10520032;28;20048;-72
2022/05/21 05:50:27;;;;;;;2.30;1.52;;;;;;;;;;10508293;28;20063;-70
2022/05/21 05:55:30;;;;;;;5.47;1.45;;;;;;;;;;10518536;28;20048;-68
2022/05/21 06:00:34;;;;;;;2.55;1.45;;;;;;;;;;10511003;28;20057;-69
2022/05/21 06:05:36;;;;;;;5.60;1.43;;;;;;;;;;10499161;28;20048;-68
2022/05/21 06:10:43;;;;;;;13.93;1.33;;;;;;;;;;10481861;28;20389;-69
2022/05/21 06:15:48;;;;;;;3.70;0.98;;;;;;;;;;10531733;28;20055;-68
2022/05/21 06:20:50;;;;;;;0.98;0.80;;;;;;;;;;10509752;28;20328;-68
2022/05/21 06:25:53;;;;;;;7.93;1.27;;;;;;;;;;10516609;28;20056;-68
2022/05/21 06:30:57;;;;;;;2.03;1.00;;;;;;;;;;10479222;28;20072;-67
2022/05/21 06:36:06;;;;;;;4.95;1.25;;;;;;;;;;10509109;28;20048;-66
2022/05/21 06:41:09;;;;;;;5.45;1.40;;;;;;;;;;10517476;28;20052;-67
2022/05/21 06:46:13;;;;;;;4.03;1.27;;;;;;;;;;10517131;28;20086;-67
2022/05/21 06:51:15;;;;;;;2.80;1.15;;;;;;;;;;10501651;28;20037;-68
2022/05/21 06:56:18;;;;;;;3.58;1.20;;;;;;;;;;10500364;28;20045;-68
2022/05/21 07:01:22;;;;;;;2.45;1.10;;;;;;;;;;10518029;28;20052;-69
2022/05/21 07:11:47;;;;;;;3.85;1.40;;;;;;;;;;10515882;28;20060;-68
2022/05/21 07:16:51;;;;;;;5.78;1.38;;;;;;;;;;10516218;28;20090;-68
2022/05/21 07:21:53;;;;;;;8.38;1.63;;;;;;;;;;10503910;28;20045;-68
2022/05/21 07:26:55;;;;;;;4.13;1.17;;;;;;;;;;10474569;28;20049;-68
2022/05/21 07:31:59;;;;;;;2.30;1.08;;;;;;;;;;10485609;28;20292;-67
2022/05/21 07:37:01;;;;;;;2.90;1.00;;;;;;;;;;10514120;28;20063;-68
2022/05/21 07:42:04;;;;;;;7.30;1.50;;;;;;;;;;10514972;28;20094;-68
2022/05/21 07:47:08;;;;;;;7.57;1.27;;;;;;;;;;10514951;28;20335;-69
2022/05/21 07:52:11;;;;;;;4.68;1.50;;;;;;;;;;10513463;28;20040;-69
2022/05/21 07:57:13;;;;;;;4.50;1.58;;;;;;;;;;10503900;28;20048;-68
2022/05/21 08:02:19;;;;;;;4.20;1.15;;;;;;;;;;10491149;28;20270;-68
2022/05/21 08:07:22;;;;;;;3.72;1.55;;;;;;;;;;10494634;28;20061;-68
2022/05/21 08:12:24;;;;;;;4.32;0.98;;;;;;;;;;10491374;28;20383;-68
2022/05/21 08:17:28;;;;;;;10.68;1.67;;;;;;;;;;10515051;28;20048;-69
2022/05/21 08:27:50;;;;;;;4.07;1.80;;;;;;;;;;10528570;28;20040;-69
2022/05/21 08:33:00;;;;;;;5.80;1.50;;;;;;;;;;10512576;28;20336;-68
2022/05/21 08:38:03;;;;;;;3.70;1.38;;;;;;;;;;10527073;28;20056;-68
2022/05/21 08:43:08;;;;;;;4.03;2.00;;;;;;;;;;10513453;28;20067;-68
2022/05/21 08:48:12;;;;;;;5.82;1.75;;;;;;;;;;10511979;28;20049;-68
2022/05/21 08:53:18;;;;;;;7.57;1.97;;;;;;;;;;10511543;28;20045;-69
2022/05/21 08:58:28;;;;;;;3.35;2.00;;;;;;;;;;10499475;28;20306;-68
2022/05/21 09:03:32;;;;;;;5.05;1.58;;;;;;;;;;10503004;28;20033;-69
2022/05/21 09:08:42;;;;;;;6.03;2.10;;;;;;;;;;10514810;28;20278;-67
2022/05/21 09:13:52;;;;;;;4.10;1.70;;;;;;;;;;10533200;28;20403;-69
2022/05/21 09:18:57;;;;;;;4.22;1.65;;;;;;;;;;10530082;28;20044;-68
2022/05/21 09:24:01;;;;;;;7.28;1.70;;;;;;;;;;10521513;28;20048;-69
2022/05/21 09:29:14;;;;;;;3.15;1.25;;;;;;;;;;10516362;28;20044;-68
2022/05/21 09:34:25;;;;;;;4.10;1.08;;;;;;;;;;10533811;28;20052;-68
2022/05/21 09:39:35;;;;;;;5.43;1.60;;;;;;;;;;10527712;28;20044;-69
2022/05/21 09:50:11;;;;;;;1.92;1.17;;;;;;;;;;10432216;28;20112;-68
2022/05/21 09:55:28;;;;;;;5.03;1.45;;;;;;;;;;10410581;28;20084;-65
2022/05/21 10:00:33;;;;;;;5.57;1.60;;;;;;;;;;10414273;28;20057;-68
2022/05/21 10:05:42;;;;;;;3.47;1.38;;;;;;;;;;10431319;28;20123;-67
2022/05/21 10:11:00;;;;;;;4.38;1.05;;;;;;;;;;10427781;28;20348;-67
2022/05/21 10:16:16;;;;;;;4.07;0.98;;;;;;;;;;10424387;28;20367;-66
2022/05/21 10:21:25;;;;;;;5.32;1.33;;;;;;;;;;10430166;28;20323;-67
2022/05/21 10:26:47;;;;;;;3.92;1.10;;;;;;;;;;10487482;28;20044;-70
2022/05/21 10:32:01;;;;;;;2.40;1.53;;;;;;;;;;10515646;28;20048;-72
2022/05/21 10:37:22;;;;;;;2.72;1.30;;;;;;;;;;10530378;28;20117;-70
2022/05/21 10:42:39;;;;;;;6.43;1.50;;;;;;;;;;10517754;28;20065;-69
2022/05/21 10:48:01;;;;;;;3.30;1.35;;;;;;;;;;10523272;28;20052;-71
2022/05/21 10:53:26;;;;;;;4.80;1.33;;;;;;;;;;10529488;28;20243;-72
2022/05/21 10:58:53;;;;;;;5.72;1.92;;;;;;;;;;10515947;28;20220;-71
2022/05/21 11:28:52;;;;;;;1.77;1.13;;;;;;;;;;10649166;27;1872814;-71
2022/05/21 11:39:16;;;;;;;10.70;2.22;;;;;;;;;;10674981;27;20038;-71
2022/05/21 11:49:44;;;;;;;4.13;1.50;;;;;;;;;;10658250;27;20042;-68
2022/05/21 11:55:11;;;;;;;2.03;1.15;;;;;;;;;;10677235;27;20092;-68
2022/05/21 12:00:58;;;;;;;3.53;1.27;;;;;;;;;;10690681;27;20076;-71
2022/05/21 12:06:30;;;;;;;3.58;1.60;;;;;;;;;;10544660;28;20075;-68
2022/05/21 12:11:44;;;;;;;7.00;2.10;;;;;;;;;;10540669;28;20344;-70
2022/05/21 12:16:59;;;;;;;3.17;1.90;;;;;;;;;;10555520;28;20063;-69
2022/05/21 12:22:04;;;;;;;3.40;1.80;;;;;;;;;;10554299;28;20052;-70
2022/05/21 12:27:22;;;;;;;6.45;2.05;;;;;;;;;;10542659;28;20063;-68
2022/05/21 12:32:25;;;;;;;3.53;2.10;;;;;;;;;;10548847;28;20263;-71
2022/05/21 12:37:32;;;;;;;4.10;1.80;;;;;;;;;;10551786;28;20064;-70
2022/05/21 12:42:39;;;;;;;7.07;2.58;;;;;;;;;;10658008;27;20039;-70
2022/05/21 12:47:44;;;;;;;4.82;2.30;;;;;;;;;;10635645;27;20291;-70
2022/05/21 12:52:50;;;;;;;7.03;2.00;;;;;;;;;;10604874;28;20342;-70
2022/05/21 12:57:54;;;;;;;2.72;1.85;;;;;;;;;;10644338;27;20058;-69
2022/05/21 13:02:56;;;;;;;;;;;;;;;;;;10646698;27;20227;-68
2022/05/21 13:08:03;;;;;;;2.92;1.70;;;;;;;;;;10624142;27;19953;-68
2022/05/21 13:13:09;;;;;;;3.92;1.73;;;;;;;;;;10617613;28;20048;-67
2022/05/21 13:18:20;;;;;;;3.63;1.95;;;;;;;;;;10632829;27;20076;-68
2022/05/21 13:23:53;;;;;;;7.93;2.45;;;;;;;;;;10660429;27;20039;-68
2022/05/21 13:29:28;;;;;;;4.88;2.58;;;;;;;;;;10652580;27;20107;-68
2022/05/21 13:34:37;;;;;;;5.05;2.00;;;;;;;;;;10631411;27;20050;-68
2022/05/21 13:39:41;;;;;;;4.35;2.10;;;;;;;;;;10657687;27;20035;-70
2022/05/21 13:44:46;;;;;;;2.33;1.85;;;;;;;;;;10645447;27;20096;-67
2022/05/21 13:49:51;;;;;;;6.35;1.95;;;;;;;;;;10638946;27;20063;-68
2022/05/21 13:54:55;;;;;;;4.65;1.83;;;;;;;;;;10616490;27;20051;-68
2022/05/21 14:00:00;;;;;;;2.03;1.50;;;;;;;;;;10602600;28;20051;-68
2022/05/21 14:05:28;;;;;;;3.08;1.80;;;;;;;;;;10636977;27;20060;-68
2022/05/21 14:10:43;;;;;;;4.28;2.13;;;;;;;;;;10644218;27;20281;-68
2022/05/21 14:15:48;;;;;;;2.47;2.08;;;;;;;;;;10643922;27;20238;-66
2022/05/21 14:20:58;;;;;;;4.25;2.10;;;;;;;;;;10641853;27;20047;-68
2022/05/21 14:26:21;;;;;;;3.63;2.53;;;;;;;;;;10655856;27;20035;-67
2022/05/21 14:31:32;;;;;;;4.35;2.50;;;;;;;;;;10642089;27;20059;-67
2022/05/21 14:36:38;;;;;;;3.75;2.65;;;;;;;;;;10658437;27;20054;-68
2022/05/21 14:41:45;;;;;;;3.33;2.42;;;;;;;;;;10642623;27;20074;-68
2022/05/21 14:57:31;;;;;;;5.05;2.42;;;;;;;;;;10642168;27;20130;-68
2022/05/21 15:02:34;;;;;;;5.95;2.92;;;;;;;;;;10636071;27;20076;-67
2022/05/21 15:07:40;;;;;;;3.25;2.58;;;;;;;;;;10641761;27;20089;-66
2022/05/21 15:12:44;;;;;;;7.82;2.58;;;;;;;;;;10651730;27;20047;-68
2022/05/21 15:17:47;;;;;;;3.40;2.13;;;;;;;;;;10641986;27;20051;-68
2022/05/21 15:22:51;;;;;;;2.85;2.05;;;;;;;;;;10617494;27;20149;-67
2022/05/21 15:27:55;;;;;;;4.93;2.75;;;;;;;;;;10599778;28;20070;-67
2022/05/21 15:32:57;;;;;;;4.28;2.40;;;;;;;;;;10625089;28;20047;-68
2022/05/21 15:37:59;;;;;;;3.17;2.28;;;;;;;;;;10641420;27;20043;-68
2022/05/21 15:43:03;;;;;;;7.68;2.50;;;;;;;;;;10629856;28;20055;-67
2022/05/21 15:48:06;;;;;;;2.92;1.90;;;;;;;;;;10624015;28;20048;-69
2022/05/21 15:53:10;;;;;;;6.27;2.30;;;;;;;;;;10607674;28;20067;-69
2022/05/21 15:58:15;;;;;;;7.60;2.85;;;;;;;;;;10600080;28;20058;-69
2022/05/21 16:03:21;;;;;;;3.63;2.70;;;;;;;;;;10620700;28;20062;-68
2022/05/21 16:08:23;;;;;;;5.35;3.13;;;;;;;;;;10646616;27;20223;-67
2022/05/21 16:13:27;;;;;;;4.65;3.10;;;;;;;;;;10645165;27;20538;-67
2022/05/21 16:18:30;;;;;;;7.15;3.10;;;;;;;;;;10643668;27;20070;-67
2022/05/21 16:23:33;;;;;;;5.43;2.30;;;;;;;;;;10647206;27;20050;-68
2022/05/21 16:28:38;;;;;;;3.40;2.17;;;;;;;;;;10646593;27;20071;-68
2022/05/21 16:33:40;;;;;;;1.63;1.52;;;;;;;;;;10647929;27;20035;-69
2022/05/21 16:38:42;;;;;;;2.35;1.80;;;;;;;;;;10646823;27;20043;-67
2022/05/21 16:43:46;;;;;;;2.13;1.92;;;;;;;;;;10648404;27;20057;-68
2022/05/21 16:48:48;;;;;;;6.32;3.00;;;;;;;;;;10644291;27;20059;-67
2022/05/21 16:53:51;;;;;;;5.88;3.33;;;;;;;;;;10644387;27;20331;-67
2022/05/21 16:58:54;;;;;;;4.13;3.20;;;;;;;;;;10646895;27;20120;-68
2022/05/21 17:03:57;;;;;;;4.47;3.13;;;;;;;;;;10647260;27;20043;-67
2022/05/21 17:09:00;;;;;;;4.97;2.53;;;;;;;;;;10634013;27;20358;-68
2022/05/21 17:14:04;;;;;;;7.18;3.30;;;;;;;;;;10619329;27;20077;-68
2022/05/21 17:19:07;;;;;;;4.30;1.90;;;;;;;;;;10630609;27;20115;-68
2022/05/21 17:24:10;;;;;;;4.47;2.40;;;;;;;;;;10642291;27;20100;-68
2022/05/21 17:34:35;;;;;;;4.55;2.40;;;;;;;;;;10657570;27;20084;-68
2022/05/21 17:39:37;;;;;;;3.72;2.60;;;;;;;;;;10644451;27;20043;-67
2022/05/21 17:44:40;;;;;;;6.40;2.42;;;;;;;;;;10645473;27;20064;-68
2022/05/21 17:49:43;;;;;;;5.90;2.40;;;;;;;;;;10643007;27;20054;-68
2022/05/21 17:54:47;;;;;;;2.60;2.40;;;;;;;;;;10641567;27;20376;-68
2022/05/21 17:59:52;;;;;;;2.65;1.80;;;;;;;;;;10645752;27;20059;-68
2022/05/21 18:04:55;;;;;;;5.05;2.60;;;;;;;;;;10641536;27;20102;-68
2022/05/21 18:09:58;;;;;;;3.20;2.30;;;;;;;;;;10605159;27;20040;-68
2022/05/21 18:15:04;;;;;;;4.40;2.60;;;;;;;;;;10632069;27;20042;-67
2022/05/21 18:20:07;;;;;;;4.28;2.80;;;;;;;;;;10635660;27;20068;-68
2022/05/21 18:25:09;;;;;;;3.25;2.60;;;;;;;;;;10640917;27;20039;-66
2022/05/21 18:30:14;;;;;;;6.45;3.50;;;;;;;;;;10643510;27;20047;-68
2022/05/21 18:35:17;;;;;;;3.13;2.83;;;;;;;;;;10639727;27;20054;-67
2022/05/21 18:40:19;;;;;;;4.90;3.33;;;;;;;;;;10643021;27;20043;-67
2022/05/21 18:45:23;;;;;;;5.15;3.22;;;;;;;;;;10626236;27;20290;-67
2022/05/21 18:50:25;;;;;;;3.53;3.10;;;;;;;;;;10624126;27;20262;-67
2022/05/21 18:55:28;;;;;;;6.70;4.32;;;;;;;;;;10641350;27;20419;-69
2022/05/21 19:00:32;;;;;;;4.28;3.40;;;;;;;;;;10641326;27;20039;-67
2022/05/21 19:05:37;;;;;;;5.53;3.97;;;;;;;;;;10641912;27;20299;-66
2022/05/21 19:10:39;;;;;;;4.80;3.83;;;;;;;;;;10654008;27;20073;-66
2022/05/21 19:15:43;;;;;;;7.35;4.45;;;;;;;;;;10621468;27;20050;-67
2022/05/21 19:20:46;;;;;;;8.47;4.00;;;;;;;;;;10640770;27;20080;-68
2022/05/21 19:25:48;;;;;;;4.28;3.70;;;;;;;;;;10641874;27;20051;-68
2022/05/21 19:30:54;;;;;;;5.88;3.60;;;;;;;;;;10640180;27;20066;-67
2022/05/21 19:35:57;;;;;;;6.57;3.20;;;;;;;;;;10611232;27;20047;-67
2022/05/21 19:41:15;;;;;;;4.93;3.30;;;;;;;;;;10644173;27;20047;-66
2022/05/21 19:46:21;;;;;;;4.55;3.25;;;;;;;;;;10655281;27;20088;-67
2022/05/21 19:51:25;;;;;;;4.53;3.50;;;;;;;;;;10661723;27;20035;-68
2022/05/21 19:56:28;;;;;;;4.43;3.20;;;;;;;;;;10649774;27;20047;-68
2022/05/21 20:01:31;;;;;;;2.33;2.10;;;;;;;;;;10637351;27;20100;-67
2022/05/21 20:06:34;;;;;;;3.67;1.85;;;;;;;;;;10611562;27;20039;-67
2022/05/21 20:11:37;;;;;;;2.40;2.20;;;;;;;;;;10626026;27;20096;-66
2022/05/21 20:16:42;;;;;;;2.92;2.22;;;;;;;;;;10647163;27;20073;-68
2022/05/21 20:21:45;;;;;;;3.30;2.35;;;;;;;;;;10648394;27;20066;-68
2022/05/21 20:26:47;;;;;;;5.53;2.75;;;;;;;;;;10646747;27;20043;-68
2022/05/21 20:31:52;;;;;;;2.85;2.30;;;;;;;;;;10647049;27;20240;-68
2022/05/21 20:36:55;;;;;;;3.28;2.45;;;;;;;;;;10646428;27;20365;-67
2022/05/21 20:41:57;;;;;;;2.53;2.22;;;;;;;;;;10648403;27;20047;-68
2022/05/21 20:47:01;;;;;;;3.90;2.90;;;;;;;;;;10645977;27;20334;-67
2022/05/21 20:52:06;;;;;;;2.90;2.50;;;;;;;;;;10644530;27;20055;-67
2022/05/21 20:57:12;;;;;;;3.20;2.67;;;;;;;;;;10641210;27;20303;-66
2022/05/21 21:02:18;;;;;;;5.38;2.47;;;;;;;;;;10660554;27;20073;-66
2022/05/21 21:07:20;;;;;;;2.83;2.35;;;;;;;;;;10653966;27;20047;-67
2022/05/21 21:12:23;;;;;;;2.15;1.95;;;;;;;;;;10644780;27;20088;-68
2022/05/21 21:17:26;;;;;;;4.43;2.20;;;;;;;;;;10645084;27;20051;-67
2022/05/21 21:22:29;;;;;;;2.07;1.83;;;;;;;;;;10644542;27;20047;-68
2022/05/21 21:27:31;;;;;;;2.50;1.88;;;;;;;;;;10642708;27;20066;-69
2022/05/21 21:32:36;;;;;;;2.72;1.77;;;;;;;;;;10634439;27;20043;-67
2022/05/21 21:37:38;;;;;;;;;;;;;;;;;;10643301;27;20070;-65
2022/05/21 21:42:43;;;;;;;3.70;1.77;;;;;;;;;;10644521;27;19951;-67
2022/05/21 21:47:46;;;;;;;;;;;;;;;;;;10644838;27;20388;-66
2022/05/21 21:52:49;;;;;;;1.40;1.30;;;;;;;;;;10638261;27;19923;-67
2022/05/21 22:01:23;;;;;;;5.88;1.50;;;;;;;;;;10645685;27;20047;-66
2022/05/21 22:03:15;;;;;;;2.92;1.45;;;;;;;;;;10646373;27;20074;-67
2022/05/21 22:08:17;;;;;;;3.80;1.70;;;;;;;;;;10643917;27;20167;-67
2022/05/21 22:13:20;;;;;;;2.45;1.75;;;;;;;;;;10641509;27;20039;-66
2022/05/21 22:18:24;;;;;;;2.47;1.83;;;;;;;;;;10621129;27;20104;-66
2022/05/21 22:23:27;;;;;;;3.40;2.20;;;;;;;;;;10630230;27;20070;-67
2022/05/21 22:28:29;;;;;;;2.20;2.00;;;;;;;;;;10642122;27;20059;-65
2022/05/21 22:33:34;;;;;;;2.05;1.83;;;;;;;;;;10641614;27;20074;-68
2022/05/21 22:38:37;;;;;;;;;;;;;;;;;;10642247;27;20066;-67
2022/05/21 22:43:39;;;;;;;3.42;2.10;;;;;;;;;;10641836;27;19938;-66
2022/05/21 22:48:43;;;;;;;2.92;1.95;;;;;;;;;;10641314;27;20088;-67
2022/05/21 22:53:45;;;;;;;5.30;2.25;;;;;;;;;;10641403;27;20084;-68
2022/05/21 22:58:48;;;;;;;11.73;8.27;;;;;;;;;;10641619;27;20290;-65
2022/05/21 23:03:52;;;;;;;3.00;2.38;;;;;;;;;;10639366;27;20039;-67
2022/05/21 23:08:54;;;;;;;2.80;2.42;;;;;;;;;;10639244;27;20058;-67
2022/05/21 23:19:18;;;;;;;5.20;2.42;;;;;;;;;;10654127;27;20070;-68
2022/05/21 23:24:20;;;;;;;2.67;2.47;;;;;;;;;;10640079;27;20047;-66
2022/05/21 23:29:23;;;;;;;2.65;2.45;;;;;;;;;;10639499;27;20043;-67
2022/05/21 23:34:27;;;;;;;3.55;2.50;;;;;;;;;;10638569;28;20047;-67
2022/05/21 23:39:29;;;;;;;3.90;2.93;;;;;;;;;;10638464;28;20334;-67
2022/05/21 23:44:32;;;;;;;8.27;2.65;;;;;;;;;;10640281;28;20054;-67
2022/05/21 23:49:36;;;;;;;2.92;2.45;;;;;;;;;;10639844;27;20095;-68
2022/05/21 23:54:39;;;;;;;4.73;2.73;;;;;;;;;;10639204;27;20039;-67
2022/05/21 23:59:42;;;;;;;3.33;2.70;;;;;;;;;;10639604;27;20073;-67
